ARG1426 SASJ-SABE
Flight info
| Callsign | ARG1426 |
|---|---|
| Flight time | 1h 45m |
| Altitude | 37000 |
| Route | ASODO2G ASODO UT672 MULTA UW24 SNT SNT8Q |
| Aircraft | B738/M-SDE2E3FGHIRWXY/LB1 |
Departure
| Time | 2026-04-20 21:41 |
|---|---|
| Airport | Gobernador Horacio Guzman International Airport (SASJ) |
Arrival
| Time | 2026-04-20 23:26 |
|---|---|
| Airport | Aeroparque Jorge Newbery (SABE) |
| Time | Latitude | Longitude | Altitude | Speed | Heading |
|---|---|---|---|---|---|
| 2026-04-20 20:44 | -24.38626 | -65.09467 | 2997 ft | 0 kts | 60° |
| 2026-04-20 21:31 | -24.38627 | -65.09469 | 2997 ft | 3 kts | 60° |
| 2026-04-20 21:31 | -24.38642 | -65.09490 | 2997 ft | 4 kts | 30° |
| 2026-04-20 21:32 | -24.38666 | -65.09496 | 2997 ft | 4 kts | 348° |
| 2026-04-20 21:32 | -24.38690 | -65.09486 | 2997 ft | 3 kts | 330° |
| 2026-04-20 21:32 | -24.38693 | -65.09485 | 2997 ft | 1 kts | 330° |
| 2026-04-20 21:35 | -24.38685 | -65.09490 | 2997 ft | 5 kts | 330° |
| 2026-04-20 21:36 | -24.38621 | -65.09530 | 2997 ft | 13 kts | 330° |
| 2026-04-20 21:36 | -24.38563 | -65.09592 | 2996 ft | 12 kts | 265° |
| 2026-04-20 21:36 | -24.38601 | -65.09675 | 2996 ft | 12 kts | 240° |
| 2026-04-20 21:36 | -24.38643 | -65.09755 | 2996 ft | 13 kts | 240° |
| 2026-04-20 21:37 | -24.38694 | -65.09850 | 2997 ft | 12 kts | 240° |
| 2026-04-20 21:37 | -24.38681 | -65.09923 | 2997 ft | 11 kts | 324° |
| 2026-04-20 21:37 | -24.38598 | -65.09975 | 2997 ft | 17 kts | 330° |
| 2026-04-20 21:37 | -24.38488 | -65.10045 | 2996 ft | 19 kts | 330° |
| 2026-04-20 21:38 | -24.38377 | -65.10115 | 2996 ft | 18 kts | 330° |
| 2026-04-20 21:38 | -24.38269 | -65.10183 | 2996 ft | 17 kts | 330° |
| 2026-04-20 21:38 | -24.38166 | -65.10248 | 2996 ft | 17 kts | 330° |
| 2026-04-20 21:38 | -24.38068 | -65.10309 | 2996 ft | 16 kts | 330° |
| 2026-04-20 21:39 | -24.38021 | -65.10381 | 2996 ft | 11 kts | 246° |
| 2026-04-20 21:39 | -24.38062 | -65.10452 | 2996 ft | 11 kts | 220° |
| 2026-04-20 21:39 | -24.38130 | -65.10483 | 2997 ft | 11 kts | 197° |
| 2026-04-20 21:39 | -24.38196 | -65.10457 | 2997 ft | 10 kts | 151° |
| 2026-04-20 21:40 | -24.38262 | -65.10415 | 2997 ft | 19 kts | 150° |
| 2026-04-20 21:40 | -24.38450 | -65.10296 | 2997 ft | 75 kts | 150° |
| 2026-04-20 21:40 | -24.39137 | -65.09863 | 2999 ft | 150 kts | 150° |
| 2026-04-20 21:40 | -24.40622 | -65.08929 | 3500 ft | 198 kts | 150° |
| 2026-04-20 21:41 | -24.41797 | -65.08221 | 4768 ft | 186 kts | 153° |
| 2026-04-20 21:41 | -24.42565 | -65.07789 | 5443 ft | 192 kts | 153° |
| 2026-04-20 21:41 | -24.43827 | -65.07088 | 5881 ft | 215 kts | 153° |
| 2026-04-20 21:41 | -24.45245 | -65.06305 | 6064 ft | 241 kts | 152° |
| 2026-04-20 21:42 | -24.46805 | -65.05433 | 6308 ft | 264 kts | 152° |
| 2026-04-20 21:42 | -24.48502 | -65.04471 | 6738 ft | 281 kts | 152° |
| 2026-04-20 21:42 | -24.50257 | -65.03467 | 7551 ft | 286 kts | 151° |
| 2026-04-20 21:42 | -24.52032 | -65.02451 | 8356 ft | 290 kts | 151° |
| 2026-04-20 21:43 | -24.53842 | -65.01413 | 9095 ft | 297 kts | 151° |
| 2026-04-20 21:43 | -24.55592 | -65.00194 | 9814 ft | 301 kts | 139° |
| 2026-04-20 21:43 | -24.57049 | -64.98541 | 10588 ft | 302 kts | 126° |
| 2026-04-20 21:43 | -24.58249 | -64.96622 | 11302 ft | 307 kts | 122° |
| 2026-04-20 21:44 | -24.59401 | -64.94660 | 12009 ft | 312 kts | 123° |
| 2026-04-20 21:44 | -24.60604 | -64.92654 | 12702 ft | 317 kts | 124° |
| 2026-04-20 21:44 | -24.61847 | -64.90630 | 13316 ft | 325 kts | 124° |
| 2026-04-20 21:44 | -24.63187 | -64.88518 | 13464 ft | 348 kts | 129° |
| 2026-04-20 21:45 | -24.65090 | -64.86787 | 13623 ft | 366 kts | 154° |
| 2026-04-20 21:45 | -24.67423 | -64.85584 | 14074 ft | 375 kts | 156° |
| 2026-04-20 21:45 | -24.69793 | -64.84335 | 14653 ft | 380 kts | 155° |
| 2026-04-20 21:45 | -24.72175 | -64.83055 | 15281 ft | 383 kts | 155° |
| 2026-04-20 21:46 | -24.74584 | -64.81750 | 15861 ft | 388 kts | 155° |
| 2026-04-20 21:46 | -24.77013 | -64.80429 | 16431 ft | 392 kts | 155° |
| 2026-04-20 21:46 | -24.79471 | -64.79091 | 16989 ft | 396 kts | 156° |
| 2026-04-20 21:46 | -24.81952 | -64.77738 | 17526 ft | 400 kts | 156° |
| 2026-04-20 21:47 | -24.84462 | -64.76368 | 18094 ft | 403 kts | 156° |
| 2026-04-20 21:47 | -24.86986 | -64.74991 | 18637 ft | 406 kts | 156° |
| 2026-04-20 21:47 | -24.89526 | -64.73605 | 19187 ft | 408 kts | 156° |
| 2026-04-20 21:47 | -24.92082 | -64.72209 | 19719 ft | 411 kts | 156° |
| 2026-04-20 21:48 | -24.94625 | -64.70821 | 20208 ft | 415 kts | 156° |
| 2026-04-20 21:48 | -24.97227 | -64.69398 | 20705 ft | 418 kts | 156° |
| 2026-04-20 21:48 | -24.99834 | -64.67972 | 21161 ft | 420 kts | 156° |
| 2026-04-20 21:48 | -25.02467 | -64.66532 | 21599 ft | 425 kts | 156° |
| 2026-04-20 21:49 | -25.05128 | -64.65077 | 22014 ft | 429 kts | 156° |
| 2026-04-20 21:49 | -25.07809 | -64.63610 | 22483 ft | 431 kts | 156° |
| 2026-04-20 21:49 | -25.10500 | -64.62135 | 22948 ft | 433 kts | 156° |
| 2026-04-20 21:49 | -25.13208 | -64.60651 | 23375 ft | 435 kts | 156° |
| 2026-04-20 21:50 | -25.15928 | -64.59159 | 23794 ft | 438 kts | 156° |
| 2026-04-20 21:50 | -25.18663 | -64.57658 | 24208 ft | 441 kts | 156° |
| 2026-04-20 21:50 | -25.21422 | -64.56143 | 24611 ft | 443 kts | 156° |
| 2026-04-20 21:50 | -25.24212 | -64.54681 | 24983 ft | 445 kts | 159° |
| 2026-04-20 21:51 | -25.27070 | -64.53328 | 25354 ft | 447 kts | 161° |
| 2026-04-20 21:51 | -25.29951 | -64.52026 | 25714 ft | 449 kts | 161° |
| 2026-04-20 21:51 | -25.32861 | -64.50725 | 26066 ft | 452 kts | 161° |
| 2026-04-20 21:51 | -25.35779 | -64.49414 | 26420 ft | 454 kts | 161° |
| 2026-04-20 21:52 | -25.38710 | -64.48082 | 26773 ft | 456 kts | 161° |
| 2026-04-20 21:52 | -25.41610 | -64.46753 | 27093 ft | 458 kts | 161° |
| 2026-04-20 21:52 | -25.44566 | -64.45390 | 27390 ft | 461 kts | 161° |
| 2026-04-20 21:52 | -25.47537 | -64.44014 | 27695 ft | 464 kts | 161° |
| 2026-04-20 21:53 | -25.50520 | -64.42629 | 27999 ft | 466 kts | 161° |
| 2026-04-20 21:53 | -25.53519 | -64.41235 | 28305 ft | 468 kts | 161° |
| 2026-04-20 21:53 | -25.56528 | -64.39836 | 28592 ft | 470 kts | 161° |
| 2026-04-20 21:53 | -25.59547 | -64.38433 | 28855 ft | 472 kts | 162° |
| 2026-04-20 21:54 | -25.62591 | -64.37018 | 29136 ft | 474 kts | 162° |
| 2026-04-20 21:54 | -25.65638 | -64.35600 | 29382 ft | 476 kts | 162° |
| 2026-04-20 21:54 | -25.68708 | -64.34171 | 29625 ft | 479 kts | 162° |
| 2026-04-20 21:54 | -25.71780 | -64.32740 | 29885 ft | 480 kts | 162° |
| 2026-04-20 21:55 | -25.74866 | -64.31304 | 30131 ft | 482 kts | 162° |
| 2026-04-20 21:55 | -25.77970 | -64.29858 | 30361 ft | 484 kts | 162° |
| 2026-04-20 21:55 | -25.81047 | -64.28422 | 30572 ft | 487 kts | 162° |
| 2026-04-20 21:55 | -25.84214 | -64.26942 | 30816 ft | 488 kts | 162° |
| 2026-04-20 21:56 | -25.87303 | -64.25500 | 31044 ft | 489 kts | 162° |
| 2026-04-20 21:56 | -25.90452 | -64.24028 | 31258 ft | 491 kts | 162° |
| 2026-04-20 21:56 | -25.93605 | -64.22554 | 31509 ft | 491 kts | 162° |
| 2026-04-20 21:56 | -25.96748 | -64.21082 | 31826 ft | 490 kts | 162° |
| 2026-04-20 21:57 | -25.99893 | -64.19607 | 32151 ft | 489 kts | 162° |
| 2026-04-20 21:57 | -26.03028 | -64.18138 | 32496 ft | 487 kts | 163° |
| 2026-04-20 21:57 | -26.06151 | -64.16675 | 32773 ft | 487 kts | 163° |
| 2026-04-20 21:57 | -26.09279 | -64.15210 | 33025 ft | 488 kts | 163° |
| 2026-04-20 21:58 | -26.12395 | -64.13698 | 33312 ft | 489 kts | 160° |
| 2026-04-20 21:58 | -26.15440 | -64.12003 | 33656 ft | 489 kts | 158° |
| 2026-04-20 21:58 | -26.18449 | -64.10236 | 33959 ft | 489 kts | 158° |
| 2026-04-20 21:58 | -26.21433 | -64.08508 | 34188 ft | 489 kts | 159° |
| 2026-04-20 21:59 | -26.24467 | -64.06788 | 34432 ft | 488 kts | 159° |
| 2026-04-20 21:59 | -26.27496 | -64.05083 | 34706 ft | 487 kts | 159° |
| 2026-04-20 21:59 | -26.30527 | -64.03379 | 34984 ft | 487 kts | 159° |
| 2026-04-20 21:59 | -26.33552 | -64.01677 | 35231 ft | 487 kts | 160° |
| 2026-04-20 22:00 | -26.36574 | -63.99976 | 35448 ft | 487 kts | 160° |
| 2026-04-20 22:00 | -26.39600 | -63.98268 | 35697 ft | 486 kts | 160° |
| 2026-04-20 22:00 | -26.42612 | -63.96567 | 35965 ft | 485 kts | 160° |
| 2026-04-20 22:00 | -26.45623 | -63.94864 | 36198 ft | 485 kts | 160° |
| 2026-04-20 22:01 | -26.48629 | -63.93162 | 36418 ft | 485 kts | 160° |
| 2026-04-20 22:01 | -26.51635 | -63.91461 | 36599 ft | 485 kts | 160° |
| 2026-04-20 22:01 | -26.54651 | -63.89752 | 36870 ft | 483 kts | 160° |
| 2026-04-20 22:01 | -26.57645 | -63.88054 | 36994 ft | 483 kts | 160° |
| 2026-04-20 22:02 | -26.60636 | -63.86358 | 36990 ft | 481 kts | 160° |
| 2026-04-20 22:02 | -26.66567 | -63.82990 | 36986 ft | 474 kts | 160° |
| 2026-04-20 22:03 | -26.72437 | -63.79653 | 36997 ft | 473 kts | 160° |
| 2026-04-20 22:03 | -26.78262 | -63.76328 | 36989 ft | 472 kts | 160° |
| 2026-04-20 22:04 | -26.84113 | -63.72982 | 36991 ft | 472 kts | 160° |
| 2026-04-20 22:04 | -26.89970 | -63.69629 | 36996 ft | 472 kts | 160° |
| 2026-04-20 22:05 | -26.95825 | -63.66273 | 36990 ft | 473 kts | 160° |
| 2026-04-20 22:05 | -27.01696 | -63.62908 | 36989 ft | 474 kts | 160° |
| 2026-04-20 22:06 | -27.07537 | -63.59538 | 36995 ft | 475 kts | 159° |
| 2026-04-20 22:06 | -27.13431 | -63.56127 | 36992 ft | 476 kts | 159° |
| 2026-04-20 22:07 | -27.19332 | -63.52709 | 36992 ft | 477 kts | 159° |
| 2026-04-20 22:07 | -27.25238 | -63.49285 | 36992 ft | 478 kts | 159° |
| 2026-04-20 22:08 | -27.31149 | -63.45854 | 36990 ft | 478 kts | 159° |
| 2026-04-20 22:08 | -27.37068 | -63.42414 | 36991 ft | 479 kts | 159° |
| 2026-04-20 22:09 | -27.42984 | -63.38973 | 36990 ft | 479 kts | 159° |
| 2026-04-20 22:09 | -27.48907 | -63.35523 | 36991 ft | 478 kts | 159° |
| 2026-04-20 22:10 | -27.54813 | -63.32079 | 36989 ft | 478 kts | 159° |
| 2026-04-20 22:10 | -27.60693 | -63.28646 | 36989 ft | 477 kts | 159° |
| 2026-04-20 22:11 | -27.66589 | -63.25201 | 36997 ft | 477 kts | 159° |
| 2026-04-20 22:11 | -27.72486 | -63.21748 | 36990 ft | 476 kts | 159° |
| 2026-04-20 22:12 | -27.78365 | -63.18301 | 36991 ft | 476 kts | 159° |
| 2026-04-20 22:12 | -27.84236 | -63.14855 | 36996 ft | 475 kts | 159° |
| 2026-04-20 22:13 | -27.90066 | -63.11431 | 37001 ft | 475 kts | 159° |
| 2026-04-20 22:13 | -27.95929 | -63.07982 | 37001 ft | 474 kts | 159° |
| 2026-04-20 22:14 | -28.01792 | -63.04530 | 36998 ft | 474 kts | 159° |
| 2026-04-20 22:14 | -28.07654 | -63.01073 | 36990 ft | 475 kts | 159° |
| 2026-04-20 22:15 | -28.13519 | -62.97612 | 36991 ft | 476 kts | 159° |
| 2026-04-20 22:15 | -28.19354 | -62.94163 | 36992 ft | 476 kts | 159° |
| 2026-04-20 22:16 | -28.25236 | -62.90683 | 36993 ft | 477 kts | 159° |
| 2026-04-20 22:16 | -28.31128 | -62.87192 | 36991 ft | 477 kts | 159° |
| 2026-04-20 22:17 | -28.37013 | -62.83700 | 36988 ft | 478 kts | 159° |
| 2026-04-20 22:17 | -28.42868 | -62.80218 | 36989 ft | 478 kts | 159° |
| 2026-04-20 22:18 | -28.48750 | -62.76720 | 36995 ft | 477 kts | 159° |
| 2026-04-20 22:18 | -28.54649 | -62.73207 | 36989 ft | 478 kts | 159° |
| 2026-04-20 22:19 | -28.60539 | -62.69695 | 36991 ft | 477 kts | 159° |
| 2026-04-20 22:19 | -28.66425 | -62.66180 | 36990 ft | 477 kts | 158° |
| 2026-04-20 22:20 | -28.72297 | -62.62668 | 36990 ft | 477 kts | 158° |
| 2026-04-20 22:20 | -28.78177 | -62.59148 | 36992 ft | 477 kts | 158° |
| 2026-04-20 22:21 | -28.84013 | -62.55650 | 36989 ft | 476 kts | 158° |
| 2026-04-20 22:21 | -28.89871 | -62.52115 | 36987 ft | 476 kts | 158° |
| 2026-04-20 22:22 | -28.95728 | -62.48570 | 36989 ft | 476 kts | 158° |
| 2026-04-20 22:22 | -29.01584 | -62.45020 | 36991 ft | 476 kts | 158° |
| 2026-04-20 22:23 | -29.07440 | -62.41467 | 37001 ft | 476 kts | 158° |
| 2026-04-20 22:23 | -29.13307 | -62.37900 | 36999 ft | 477 kts | 158° |
| 2026-04-20 22:24 | -29.19170 | -62.34335 | 37002 ft | 477 kts | 158° |
| 2026-04-20 22:24 | -29.25014 | -62.30779 | 36998 ft | 478 kts | 158° |
| 2026-04-20 22:25 | -29.30887 | -62.27197 | 37003 ft | 478 kts | 158° |
| 2026-04-20 22:25 | -29.36773 | -62.23602 | 37000 ft | 479 kts | 158° |
| 2026-04-20 22:26 | -29.42658 | -62.20004 | 36998 ft | 479 kts | 158° |
| 2026-04-20 22:26 | -29.48545 | -62.16401 | 37001 ft | 480 kts | 157° |
| 2026-04-20 22:27 | -29.57344 | -62.11003 | 37000 ft | 480 kts | 157° |
| 2026-04-20 22:27 | -29.63243 | -62.07379 | 36997 ft | 480 kts | 157° |
| 2026-04-20 22:28 | -29.69132 | -62.03757 | 37003 ft | 480 kts | 157° |
| 2026-04-20 22:28 | -29.75026 | -62.00126 | 36998 ft | 480 kts | 157° |
| 2026-04-20 22:29 | -29.80918 | -61.96492 | 37001 ft | 480 kts | 157° |
| 2026-04-20 22:29 | -29.85816 | -61.93470 | 37000 ft | 480 kts | 157° |
| 2026-04-20 22:30 | -29.91935 | -61.90653 | 37006 ft | 470 kts | 169° |
| 2026-04-20 22:30 | -29.99224 | -61.88125 | 36991 ft | 470 kts | 169° |
| 2026-04-20 22:31 | -30.04445 | -61.86273 | 36989 ft | 471 kts | 168° |
| 2026-04-20 22:31 | -30.10704 | -61.83997 | 36989 ft | 471 kts | 168° |
| 2026-04-20 22:32 | -30.16950 | -61.81703 | 36990 ft | 471 kts | 168° |
| 2026-04-20 22:32 | -30.23199 | -61.79405 | 36990 ft | 471 kts | 168° |
| 2026-04-20 22:33 | -30.29456 | -61.77103 | 36994 ft | 472 kts | 168° |
| 2026-04-20 22:33 | -30.35726 | -61.74795 | 36992 ft | 473 kts | 168° |
| 2026-04-20 22:34 | -30.41998 | -61.72483 | 36992 ft | 474 kts | 168° |
| 2026-04-20 22:34 | -30.48284 | -61.70163 | 36991 ft | 475 kts | 168° |
| 2026-04-20 22:35 | -30.54553 | -61.67845 | 36989 ft | 476 kts | 168° |
| 2026-04-20 22:35 | -30.60914 | -61.65495 | 36991 ft | 478 kts | 168° |
| 2026-04-20 22:36 | -30.67225 | -61.63170 | 36991 ft | 479 kts | 168° |
| 2026-04-20 22:36 | -30.73588 | -61.60821 | 36989 ft | 481 kts | 168° |
| 2026-04-20 22:37 | -30.79980 | -61.58455 | 36981 ft | 483 kts | 168° |
| 2026-04-20 22:37 | -30.86394 | -61.56078 | 36983 ft | 484 kts | 168° |
| 2026-04-20 22:38 | -30.92820 | -61.53693 | 36987 ft | 485 kts | 168° |
| 2026-04-20 22:38 | -30.99263 | -61.51298 | 36981 ft | 486 kts | 167° |
| 2026-04-20 22:39 | -31.05710 | -61.48899 | 36983 ft | 487 kts | 168° |
| 2026-04-20 22:39 | -31.12203 | -61.46479 | 36983 ft | 488 kts | 167° |
| 2026-04-20 22:40 | -31.18681 | -61.44060 | 36971 ft | 489 kts | 167° |
| 2026-04-20 22:40 | -31.25134 | -61.41648 | 36975 ft | 490 kts | 167° |
| 2026-04-20 22:41 | -31.31630 | -61.39217 | 36969 ft | 490 kts | 167° |
| 2026-04-20 22:41 | -31.38118 | -61.36774 | 36972 ft | 490 kts | 167° |
| 2026-04-20 22:42 | -31.44613 | -61.34312 | 36969 ft | 490 kts | 167° |
| 2026-04-20 22:42 | -31.51087 | -61.31857 | 36973 ft | 489 kts | 167° |
| 2026-04-20 22:43 | -31.57564 | -61.29399 | 36969 ft | 489 kts | 167° |
| 2026-04-20 22:43 | -31.64052 | -61.26932 | 36975 ft | 489 kts | 167° |
| 2026-04-20 22:44 | -31.70531 | -61.24467 | 36974 ft | 489 kts | 167° |
| 2026-04-20 22:44 | -31.77007 | -61.22001 | 36974 ft | 489 kts | 167° |
| 2026-04-20 22:45 | -31.83485 | -61.19529 | 36973 ft | 489 kts | 167° |
| 2026-04-20 22:45 | -31.89930 | -61.17066 | 36969 ft | 490 kts | 167° |
| 2026-04-20 22:46 | -31.96414 | -61.14583 | 36975 ft | 490 kts | 167° |
| 2026-04-20 22:46 | -32.02811 | -61.11720 | 36957 ft | 498 kts | 154° |
| 2026-04-20 22:47 | -32.08697 | -61.07333 | 36973 ft | 501 kts | 150° |
| 2026-04-20 22:47 | -32.14561 | -61.02858 | 36973 ft | 503 kts | 151° |
| 2026-04-20 22:48 | -32.20471 | -60.98415 | 36975 ft | 504 kts | 151° |
| 2026-04-20 22:48 | -32.26402 | -60.93995 | 36972 ft | 505 kts | 151° |
| 2026-04-20 22:49 | -32.32357 | -60.89561 | 36972 ft | 506 kts | 151° |
| 2026-04-20 22:49 | -32.38321 | -60.85111 | 36978 ft | 507 kts | 151° |
| 2026-04-20 22:50 | -32.44250 | -60.80676 | 36974 ft | 508 kts | 151° |
| 2026-04-20 22:50 | -32.50227 | -60.76197 | 36970 ft | 508 kts | 151° |
| 2026-04-20 22:51 | -32.56213 | -60.71706 | 36967 ft | 509 kts | 151° |
| 2026-04-20 22:51 | -32.62158 | -60.67236 | 36957 ft | 509 kts | 151° |
| 2026-04-20 22:52 | -32.68130 | -60.62738 | 36962 ft | 508 kts | 151° |
| 2026-04-20 22:52 | -32.74094 | -60.58241 | 36964 ft | 508 kts | 151° |
| 2026-04-20 22:53 | -32.80061 | -60.53737 | 36963 ft | 507 kts | 151° |
| 2026-04-20 22:53 | -32.86019 | -60.49229 | 36963 ft | 507 kts | 151° |
| 2026-04-20 22:54 | -32.89003 | -60.46969 | 36834 ft | 509 kts | 151° |
| 2026-04-20 22:54 | -32.92006 | -60.44694 | 36277 ft | 510 kts | 150° |
| 2026-04-20 22:54 | -32.94977 | -60.42439 | 35712 ft | 505 kts | 150° |
| 2026-04-20 22:54 | -32.97933 | -60.40193 | 35079 ft | 505 kts | 150° |
| 2026-04-20 22:55 | -33.00907 | -60.37933 | 34452 ft | 506 kts | 150° |
| 2026-04-20 22:55 | -33.03843 | -60.35703 | 33844 ft | 508 kts | 150° |
| 2026-04-20 22:55 | -33.06847 | -60.33416 | 33381 ft | 504 kts | 150° |
| 2026-04-20 22:55 | -33.09791 | -60.31172 | 32903 ft | 501 kts | 150° |
| 2026-04-20 22:56 | -33.12721 | -60.28937 | 32433 ft | 498 kts | 151° |
| 2026-04-20 22:56 | -33.15594 | -60.26744 | 31970 ft | 495 kts | 151° |
| 2026-04-20 22:56 | -33.18466 | -60.24550 | 31509 ft | 492 kts | 151° |
| 2026-04-20 22:56 | -33.21355 | -60.22342 | 31041 ft | 489 kts | 151° |
| 2026-04-20 22:57 | -33.24216 | -60.20155 | 30579 ft | 486 kts | 152° |
| 2026-04-20 22:57 | -33.27051 | -60.17986 | 30121 ft | 482 kts | 152° |
| 2026-04-20 22:57 | -33.29865 | -60.15829 | 29662 ft | 479 kts | 152° |
| 2026-04-20 22:57 | -33.32664 | -60.13684 | 29195 ft | 475 kts | 152° |
| 2026-04-20 22:58 | -33.35432 | -60.11559 | 28726 ft | 472 kts | 152° |
| 2026-04-20 22:58 | -33.38188 | -60.09443 | 28255 ft | 468 kts | 152° |
| 2026-04-20 22:58 | -33.40915 | -60.07348 | 27786 ft | 463 kts | 152° |
| 2026-04-20 22:58 | -33.43614 | -60.05273 | 27328 ft | 459 kts | 152° |
| 2026-04-20 22:59 | -33.46298 | -60.03209 | 26874 ft | 455 kts | 152° |
| 2026-04-20 22:59 | -33.48917 | -60.01192 | 26410 ft | 452 kts | 151° |
| 2026-04-20 22:59 | -33.51550 | -59.99162 | 25966 ft | 448 kts | 151° |
| 2026-04-20 22:59 | -33.54136 | -59.97166 | 25500 ft | 435 kts | 151° |
| 2026-04-20 23:00 | -33.56643 | -59.95226 | 25058 ft | 423 kts | 151° |
| 2026-04-20 23:00 | -33.59084 | -59.93338 | 24631 ft | 414 kts | 151° |
| 2026-04-20 23:00 | -33.61497 | -59.91476 | 24237 ft | 410 kts | 151° |
| 2026-04-20 23:00 | -33.63886 | -59.89632 | 23819 ft | 407 kts | 151° |
| 2026-04-20 23:01 | -33.66259 | -59.87799 | 23405 ft | 404 kts | 151° |
| 2026-04-20 23:01 | -33.68610 | -59.85981 | 22985 ft | 401 kts | 151° |
| 2026-04-20 23:01 | -33.70952 | -59.84168 | 22568 ft | 399 kts | 151° |
| 2026-04-20 23:01 | -33.73275 | -59.82367 | 22156 ft | 396 kts | 151° |
| 2026-04-20 23:02 | -33.75628 | -59.80682 | 21723 ft | 390 kts | 161° |
| 2026-04-20 23:02 | -33.78201 | -59.79879 | 21328 ft | 375 kts | 182° |
| 2026-04-20 23:02 | -33.80730 | -59.80185 | 20984 ft | 358 kts | 203° |
| 2026-04-20 23:02 | -33.82876 | -59.81497 | 20736 ft | 338 kts | 223° |
| 2026-04-20 23:03 | -33.84594 | -59.83341 | 20605 ft | 325 kts | 229° |
| 2026-04-20 23:03 | -33.86160 | -59.85208 | 20469 ft | 319 kts | 230° |
| 2026-04-20 23:03 | -33.87750 | -59.87146 | 20225 ft | 333 kts | 230° |
| 2026-04-20 23:03 | -33.89337 | -59.89237 | 19979 ft | 341 kts | 239° |
| 2026-04-20 23:04 | -33.90349 | -59.91798 | 19727 ft | 338 kts | 257° |
| 2026-04-20 23:04 | -33.90826 | -59.94543 | 19472 ft | 333 kts | 269° |
| 2026-04-20 23:04 | -33.90535 | -59.97257 | 19212 ft | 327 kts | 289° |
| 2026-04-20 23:04 | -33.89869 | -59.99863 | 18954 ft | 326 kts | 277° |
| 2026-04-20 23:05 | -33.90165 | -60.02558 | 18693 ft | 330 kts | 250° |
| 2026-04-20 23:05 | -33.91522 | -60.04805 | 18454 ft | 341 kts | 224° |
| 2026-04-20 23:05 | -33.93609 | -60.06150 | 18240 ft | 350 kts | 205° |
| 2026-04-20 23:05 | -33.95946 | -60.07006 | 17988 ft | 353 kts | 198° |
| 2026-04-20 23:06 | -33.98402 | -60.07427 | 17736 ft | 360 kts | 186° |
| 2026-04-20 23:06 | -34.00911 | -60.07161 | 17472 ft | 368 kts | 170° |
| 2026-04-20 23:06 | -34.03294 | -60.05974 | 17216 ft | 375 kts | 149° |
| 2026-04-20 23:06 | -34.05229 | -60.03860 | 16965 ft | 379 kts | 129° |
| 2026-04-20 23:07 | -34.06538 | -60.01107 | 16716 ft | 379 kts | 109° |
| 2026-04-20 23:07 | -34.07257 | -59.98067 | 16501 ft | 376 kts | 103° |
| 2026-04-20 23:07 | -34.07895 | -59.95010 | 16238 ft | 375 kts | 103° |
| 2026-04-20 23:07 | -34.08516 | -59.91968 | 15985 ft | 372 kts | 103° |
| 2026-04-20 23:08 | -34.09131 | -59.88954 | 15728 ft | 368 kts | 103° |
| 2026-04-20 23:08 | -34.09745 | -59.85974 | 15475 ft | 365 kts | 103° |
| 2026-04-20 23:08 | -34.10359 | -59.83023 | 15225 ft | 362 kts | 103° |
| 2026-04-20 23:08 | -34.10975 | -59.80080 | 14973 ft | 359 kts | 103° |
| 2026-04-20 23:09 | -34.11588 | -59.77164 | 14723 ft | 357 kts | 103° |
| 2026-04-20 23:09 | -34.12197 | -59.74269 | 14468 ft | 354 kts | 103° |
| 2026-04-20 23:09 | -34.12801 | -59.71402 | 14221 ft | 352 kts | 103° |
| 2026-04-20 23:09 | -34.13396 | -59.68576 | 13976 ft | 350 kts | 103° |
| 2026-04-20 23:10 | -34.13994 | -59.65731 | 13725 ft | 348 kts | 103° |
| 2026-04-20 23:10 | -34.14587 | -59.62908 | 13474 ft | 346 kts | 103° |
| 2026-04-20 23:10 | -34.15175 | -59.60107 | 13236 ft | 344 kts | 102° |
| 2026-04-20 23:10 | -34.15763 | -59.57305 | 12976 ft | 342 kts | 102° |
| 2026-04-20 23:11 | -34.16344 | -59.54528 | 12725 ft | 340 kts | 102° |
| 2026-04-20 23:11 | -34.16923 | -59.51759 | 12475 ft | 339 kts | 102° |
| 2026-04-20 23:11 | -34.17497 | -59.49007 | 12225 ft | 337 kts | 102° |
| 2026-04-20 23:11 | -34.18069 | -59.46268 | 11974 ft | 335 kts | 102° |
| 2026-04-20 23:12 | -34.18635 | -59.43550 | 11725 ft | 333 kts | 102° |
| 2026-04-20 23:12 | -34.19197 | -59.40846 | 11474 ft | 331 kts | 102° |
| 2026-04-20 23:12 | -34.19757 | -59.38155 | 11225 ft | 330 kts | 102° |
| 2026-04-20 23:12 | -34.20315 | -59.35470 | 10973 ft | 328 kts | 102° |
| 2026-04-20 23:13 | -34.20867 | -59.32805 | 10722 ft | 326 kts | 102° |
| 2026-04-20 23:13 | -34.21417 | -59.30148 | 10473 ft | 325 kts | 102° |
| 2026-04-20 23:13 | -34.21963 | -59.27504 | 10221 ft | 323 kts | 102° |
| 2026-04-20 23:13 | -34.22498 | -59.24917 | 9976 ft | 321 kts | 102° |
| 2026-04-20 23:14 | -34.23033 | -59.22328 | 9707 ft | 311 kts | 102° |
| 2026-04-20 23:14 | -34.23549 | -59.19832 | 9449 ft | 302 kts | 102° |
| 2026-04-20 23:14 | -34.24051 | -59.17400 | 9190 ft | 294 kts | 102° |
| 2026-04-20 23:14 | -34.24541 | -59.15027 | 8932 ft | 287 kts | 102° |
| 2026-04-20 23:15 | -34.25019 | -59.12703 | 8691 ft | 285 kts | 101° |
| 2026-04-20 23:15 | -34.25493 | -59.10383 | 8441 ft | 283 kts | 101° |
| 2026-04-20 23:15 | -34.25961 | -59.08089 | 8182 ft | 279 kts | 101° |
| 2026-04-20 23:15 | -34.26424 | -59.05827 | 7940 ft | 276 kts | 101° |
| 2026-04-20 23:16 | -34.26883 | -59.03586 | 7688 ft | 273 kts | 101° |
| 2026-04-20 23:16 | -34.27405 | -59.01397 | 7438 ft | 272 kts | 110° |
| 2026-04-20 23:16 | -34.27954 | -58.99998 | 7281 ft | 271 kts | 115° |
| 2026-04-20 23:16 | -34.28846 | -58.98036 | 7027 ft | 269 kts | 116° |
| 2026-04-20 23:17 | -34.29781 | -58.96043 | 6772 ft | 268 kts | 116° |
| 2026-04-20 23:17 | -34.30689 | -58.94083 | 6523 ft | 266 kts | 116° |
| 2026-04-20 23:17 | -34.31567 | -58.92158 | 6274 ft | 264 kts | 116° |
| 2026-04-20 23:17 | -34.32443 | -58.90211 | 6026 ft | 263 kts | 115° |
| 2026-04-20 23:18 | -34.33309 | -58.88272 | 5778 ft | 262 kts | 115° |
| 2026-04-20 23:18 | -34.34168 | -58.86336 | 5531 ft | 260 kts | 115° |
| 2026-04-20 23:18 | -34.35017 | -58.84414 | 5280 ft | 258 kts | 115° |
| 2026-04-20 23:18 | -34.35856 | -58.82503 | 5025 ft | 256 kts | 115° |
| 2026-04-20 23:19 | -34.36695 | -58.80595 | 4779 ft | 256 kts | 115° |
| 2026-04-20 23:19 | -34.37527 | -58.78698 | 4529 ft | 255 kts | 115° |
| 2026-04-20 23:19 | -34.38355 | -58.76809 | 4285 ft | 253 kts | 115° |
| 2026-04-20 23:19 | -34.39177 | -58.74930 | 4030 ft | 252 kts | 115° |
| 2026-04-20 23:20 | -34.39996 | -58.73060 | 3779 ft | 250 kts | 115° |
| 2026-04-20 23:20 | -34.40805 | -58.71208 | 3531 ft | 248 kts | 115° |
| 2026-04-20 23:20 | -34.41604 | -58.69375 | 3285 ft | 246 kts | 115° |
| 2026-04-20 23:20 | -34.42395 | -58.67565 | 3052 ft | 237 kts | 115° |
| 2026-04-20 23:21 | -34.43136 | -58.65871 | 3013 ft | 217 kts | 115° |
| 2026-04-20 23:21 | -34.43794 | -58.64365 | 2976 ft | 194 kts | 114° |
| 2026-04-20 23:21 | -34.44404 | -58.62971 | 2973 ft | 178 kts | 114° |
| 2026-04-20 23:21 | -34.44983 | -58.61637 | 2997 ft | 179 kts | 114° |
| 2026-04-20 23:22 | -34.45553 | -58.60321 | 2996 ft | 174 kts | 114° |
| 2026-04-20 23:22 | -34.46137 | -58.59050 | 2984 ft | 171 kts | 118° |
| 2026-04-20 23:22 | -34.46799 | -58.57862 | 2991 ft | 173 kts | 120° |
| 2026-04-20 23:22 | -34.47509 | -58.56674 | 2750 ft | 172 kts | 121° |
| 2026-04-20 23:23 | -34.48168 | -58.55525 | 2526 ft | 160 kts | 121° |
| 2026-04-20 23:23 | -34.48779 | -58.54448 | 2351 ft | 148 kts | 120° |
| 2026-04-20 23:23 | -34.49355 | -58.53409 | 2142 ft | 148 kts | 121° |
| 2026-04-20 23:23 | -34.49932 | -58.52370 | 1937 ft | 149 kts | 121° |
| 2026-04-20 23:24 | -34.50508 | -58.51332 | 1740 ft | 149 kts | 121° |
| 2026-04-20 23:24 | -34.51084 | -58.50293 | 1543 ft | 147 kts | 122° |
| 2026-04-20 23:24 | -34.51653 | -58.49267 | 1348 ft | 144 kts | 123° |
| 2026-04-20 23:24 | -34.52203 | -58.48272 | 1156 ft | 141 kts | 123° |
| 2026-04-20 23:25 | -34.52750 | -58.47288 | 988 ft | 142 kts | 123° |
| 2026-04-20 23:25 | -34.53298 | -58.46282 | 791 ft | 143 kts | 124° |
| 2026-04-20 23:25 | -34.53868 | -58.45297 | 603 ft | 142 kts | 122° |
| 2026-04-20 23:25 | -34.54424 | -58.44263 | 401 ft | 150 kts | 123° |
| 2026-04-20 23:26 | -34.55010 | -58.43222 | 200 ft | 146 kts | 123° |
| 2026-04-20 23:26 | -34.55568 | -58.42213 | 28 ft | 141 kts | 124° |
| 2026-04-20 23:26 | -34.55915 | -58.41592 | 26 ft | 36 kts | 124° |
| 2026-04-20 23:26 | -34.56014 | -58.41414 | 28 ft | 13 kts | 124° |
| 2026-04-20 23:27 | -34.56004 | -58.41347 | 28 ft | 9 kts | 36° |
| 2026-04-20 23:27 | -34.55969 | -58.41318 | 26 ft | 0 kts | 34° |
| 2026-04-20 23:28 | -34.55967 | -58.41316 | 26 ft | 1 kts | 34° |
| 2026-04-20 23:29 | -34.55950 | -58.41303 | 26 ft | 5 kts | 30° |
| 2026-04-20 23:29 | -34.55905 | -58.41298 | 30 ft | 7 kts | 351° |
| 2026-04-20 23:29 | -34.55867 | -58.41283 | 26 ft | 7 kts | 33° |
| 2026-04-20 23:29 | -34.55829 | -58.41275 | 29 ft | 5 kts | 31° |
| 2026-04-20 23:30 | -34.55804 | -58.41246 | 30 ft | 0 kts | 40° |